Airfield :
LOGIN :

Register | Disclaimer

   EN    FR    IT 

 










Legend :    VFR   Marginal VFR   IFR   Intensive IFR   Very Intensive IFR
Visi :
Ceiling :
>= 8 km
>= 3000ft
5 to 8 km
1000 to 3000 ft
1500m to 5 km
500 to 1000 ft
800 to 1500m
200 to 500 ft
< 800m
< 200 ft
Symbols :   Thunderstorms  Fog  Heavy snow  Heavy precipitations  Wind > 20 kt
SIGMETs :     Misc.  Thunderstorms  Icing  Turbulence  Mountain Waves  Volcanic Ashes







- Airport Elevation : 20 ft


EBFN - Koksijde

CURRENT METAR :
  • 191625Z 32009KT 6000 -SHRA FEW008 SCT013 BKN038 13/12 Q1021 GRN GRN TEMPO YLO

EXPIRED METARs :
  • 191555Z 32011KT 9999 -SHRA FEW008 SCT013 BKN038 13/12 Q1021 GRN GRN TEMPO YLO
  • 191525Z 32009KT 9999 SCT007 SCT013 BKN038 13/13 Q1021 GRN GRN TEMPO YLO
  • 191509Z 29011KT 9999 -SHRA SCT007 SCT014 BKN030 13/13 Q1021 GRN GRN TEMPO YLO
  • 191455Z 30012KT 3500 -SHRA SCT007 SCT014 BKN030 14/13 Q1021 YLO GRN TEMPO YLO
  • 191450Z 31013KT 9999 FEW009 SCT014TCU BKN040 14/13 Q1021 GRN WHT TEMPO GRN
  • 191433Z 25008KT 9999 FEW011 SCT015TCU BKN048 14/12 Q1021 WHT WHT TEMPO GRN
  • 191355Z 28010KT 9999 SCT016CB BKN200 14/12 Q1021 WHT BLU TEMPO WHT
  • 191353Z 28010KT 9999 SCT016CB BKN200 14/12 Q1021 WHT BLU TEMPO WHT

TAF TAF EBFN
Valid from the 19 at 13:00 until the 19 at 22:00 UTC


191141Z 1913/1922 33010KT 9999 FEW015 SCT270
PROB40
TEMPO 1913/1919 5000 -SHRA FEW010 SCT013TCU BKN250
No reported NOTAMs for that airfield.



MET'MAP, your aeronautical weather chart ! - Copyright ORBIFLY December 2007 - Disclaimer

ORBIFLY MET'MAP TEAM :

Programming & Development : Alexandra Zaïnal
Concept & Development : Baudouin d'Aumeries
Co-Development & Prog : Marc-Olivier Méhu
Technical & hardware support : Manuel Goepfert

Contact : metmap@orbifly.com




SOURCES & CREDITS :

   NOAA